createdAt,value
2019-01-26T00:00:03.072Z,-0.90
2019-01-26T00:05:09.430Z,-0.84
2019-01-26T00:10:13.975Z,-0.66
2019-01-26T00:15:18.523Z,-0.78
2019-01-26T00:20:22.952Z,-0.61
2019-01-26T00:25:27.301Z,-0.45
2019-01-26T00:30:31.786Z,-0.39
2019-01-26T00:35:36.157Z,-0.36
2019-01-26T00:40:40.531Z,-0.37
2019-01-26T00:45:44.899Z,-0.47
2019-01-26T00:50:49.339Z,-0.84
2019-01-26T00:55:53.689Z,-0.65
2019-01-26T01:00:58.062Z,-0.65
2019-01-26T01:06:02.698Z,-0.87
2019-01-26T01:11:07.226Z,-0.69
2019-01-26T01:16:11.656Z,-0.67
2019-01-26T01:21:16.811Z,-0.65
2019-01-26T01:26:21.221Z,-0.45
2019-01-26T01:31:25.569Z,-0.58
2019-01-26T01:36:29.928Z,-0.61
2019-01-26T01:41:34.317Z,-0.59
2019-01-26T01:46:42.852Z,-0.81
2019-01-26T01:51:44.789Z,-0.67
2019-01-26T01:56:49.586Z,-0.71
2019-01-26T02:01:53.951Z,-0.57
2019-01-26T02:06:58.333Z,-1.06
2019-01-26T02:12:02.686Z,-0.49
2019-01-26T02:17:07.089Z,-0.60
2019-01-26T02:22:11.479Z,-0.80
2019-01-26T02:27:15.866Z,-0.83
2019-01-26T02:32:20.252Z,-0.48
2019-01-26T02:37:24.607Z,-0.72
2019-01-26T02:42:28.992Z,-0.41
2019-01-26T02:47:33.461Z,-0.48
2019-01-26T02:52:37.896Z,-0.49
2019-01-26T02:57:42.336Z,-0.42
2019-01-26T03:02:46.713Z,-0.47
2019-01-26T03:07:51.156Z,-0.61
2019-01-26T03:12:55.507Z,-0.40
2019-01-26T03:17:59.882Z,-0.59
2019-01-26T03:23:04.403Z,-0.66
2019-01-26T03:28:08.763Z,-0.87
2019-01-26T03:33:13.149Z,-0.70
2019-01-26T03:38:17.510Z,-0.90
2019-01-26T03:43:21.975Z,-0.80
2019-01-26T03:48:26.408Z,-0.47
2019-01-26T03:53:30.749Z,-0.29
2019-01-26T03:58:35.322Z,-0.70
2019-01-26T04:03:39.708Z,-0.35
2019-01-26T04:08:44.092Z,-0.28
2019-01-26T04:13:48.466Z,-0.34
2019-01-26T04:18:53.227Z,-0.32
2019-01-26T04:23:58.166Z,-0.24
2019-01-26T04:29:02.528Z,-0.35
2019-01-26T04:34:06.973Z,-0.32
2019-01-26T04:39:11.358Z,-0.32
2019-01-26T04:44:15.752Z,-0.14
2019-01-26T04:49:20.098Z,-0.07
2019-01-26T04:54:24.496Z,-0.15
2019-01-26T04:59:28.889Z,-0.07
2019-01-26T05:04:33.504Z,-0.04
2019-01-26T05:09:37.956Z,-0.04
2019-01-26T05:14:42.382Z,0.01
2019-01-26T05:19:46.810Z,0.22
2019-01-26T05:24:51.206Z,0.60
2019-01-26T05:29:55.542Z,0.65
2019-01-26T05:35:00.272Z,0.70
2019-01-26T05:40:08.129Z,0.63
2019-01-26T05:45:15.385Z,0.65
2019-01-26T05:50:22.690Z,0.72
2019-01-26T05:55:27.136Z,0.78
2019-01-26T06:00:32.874Z,0.76
2019-01-26T06:05:37.256Z,0.82
2019-01-26T06:10:41.609Z,0.99
2019-01-26T06:15:46.001Z,1.00
2019-01-26T06:20:50.359Z,0.98
2019-01-26T06:25:54.721Z,1.13
2019-01-26T06:30:59.079Z,1.17
2019-01-26T06:36:03.446Z,1.18
2019-01-26T06:41:07.792Z,1.32
2019-01-26T06:46:12.149Z,1.37
2019-01-26T06:51:16.563Z,1.57
2019-01-26T06:56:20.920Z,1.72
2019-01-26T07:01:25.276Z,1.65
2019-01-26T07:06:31.287Z,1.71
2019-01-26T07:11:35.671Z,1.86
2019-01-26T07:16:40.023Z,1.98
2019-01-26T07:21:44.499Z,1.89
2019-01-26T07:26:48.907Z,2.26
2019-01-26T07:31:53.329Z,2.10
2019-01-26T07:36:57.678Z,2.05
2019-01-26T07:42:02.035Z,2.15
2019-01-26T07:47:06.386Z,2.09
2019-01-26T07:52:10.763Z,2.23
2019-01-26T07:57:15.175Z,2.08
2019-01-26T08:02:19.491Z,2.21
2019-01-26T08:07:23.881Z,2.29
2019-01-26T08:12:28.704Z,2.40
2019-01-26T08:17:33.085Z,2.23
2019-01-26T08:22:37.426Z,2.27
2019-01-26T08:27:41.768Z,2.21
2019-01-26T08:32:46.311Z,2.18
2019-01-26T08:37:50.971Z,2.18
2019-01-26T08:42:55.343Z,2.27
2019-01-26T08:47:59.706Z,2.15
2019-01-26T08:53:04.074Z,2.23
2019-01-26T08:58:08.413Z,2.31
2019-01-26T09:03:14.411Z,2.40
2019-01-26T09:08:18.759Z,2.19
2019-01-26T09:13:23.127Z,2.34
2019-01-26T09:18:27.562Z,2.20
2019-01-26T09:23:32.300Z,2.37
2019-01-26T09:28:36.668Z,2.28
2019-01-26T09:33:41.005Z,2.40
2019-01-26T09:38:45.517Z,2.55
2019-01-26T09:43:49.882Z,2.43
2019-01-26T09:48:54.351Z,2.49
2019-01-26T09:53:58.795Z,2.48
2019-01-26T09:59:03.365Z,2.43
2019-01-26T10:04:07.701Z,2.67
2019-01-26T10:09:13.085Z,2.76
2019-01-26T10:14:17.432Z,2.58
2019-01-26T10:19:22.471Z,2.42
2019-01-26T10:24:26.885Z,2.53
2019-01-26T10:29:31.239Z,2.62
2019-01-26T10:34:35.600Z,2.57
2019-01-26T10:39:40.259Z,2.53
2019-01-26T10:44:45.296Z,2.76
2019-01-26T10:49:50.908Z,2.71
2019-01-26T10:54:55.278Z,2.75
2019-01-26T10:59:59.815Z,2.66
2019-01-26T11:05:05.335Z,2.45
2019-01-26T11:10:12.863Z,2.55
2019-01-26T11:15:17.369Z,2.63
2019-01-26T11:20:21.754Z,2.72
2019-01-26T11:25:26.111Z,2.57
2019-01-26T11:30:32.092Z,2.60
2019-01-26T11:35:36.447Z,2.60
2019-01-26T11:40:40.797Z,2.77
2019-01-26T11:45:46.826Z,2.79
2019-01-26T11:50:52.841Z,2.80
2019-01-26T11:56:01.586Z,2.66
2019-01-26T12:01:07.883Z,2.71
2019-01-26T12:06:16.837Z,2.77
2019-01-26T12:11:21.233Z,2.72
2019-01-26T12:16:27.061Z,2.82
2019-01-26T12:21:31.751Z,2.82
2019-01-26T12:26:37.369Z,2.92
2019-01-26T12:31:42.047Z,2.86
2019-01-26T12:36:46.530Z,2.78
2019-01-26T12:41:51.054Z,2.82
2019-01-26T12:46:55.444Z,2.93
2019-01-26T12:51:59.860Z,2.78
2019-01-26T12:57:04.409Z,3.05
2019-01-26T13:02:09.024Z,2.94
2019-01-26T13:07:13.435Z,2.96
2019-01-26T13:12:17.837Z,2.86
2019-01-26T13:17:22.179Z,2.96
2019-01-26T13:22:26.539Z,2.94
2019-01-26T13:27:30.895Z,3.05
2019-01-26T13:32:35.436Z,3.09
2019-01-26T13:37:39.859Z,3.08
2019-01-26T13:42:44.233Z,3.12
2019-01-26T13:47:48.576Z,3.08
2019-01-26T13:52:52.927Z,3.20
2019-01-26T13:57:57.274Z,3.18
2019-01-26T14:03:01.673Z,3.24
2019-01-26T14:08:06.202Z,3.33
2019-01-26T14:13:10.547Z,3.50
2019-01-26T14:18:14.884Z,3.42
2019-01-26T14:23:19.239Z,3.48
2019-01-26T14:28:23.597Z,3.48
2019-01-26T14:33:29.005Z,3.61
2019-01-26T14:38:33.369Z,3.46
2019-01-26T14:43:38.818Z,3.64
2019-01-26T14:48:43.153Z,3.71
2019-01-26T14:53:47.960Z,3.53
2019-01-26T14:58:52.454Z,3.57
2019-01-26T15:03:56.866Z,3.57
2019-01-26T15:09:01.191Z,3.72
2019-01-26T15:14:07.392Z,3.72
2019-01-26T15:19:11.788Z,3.68
2019-01-26T15:24:16.116Z,3.59
2019-01-26T15:29:20.535Z,3.63
2019-01-26T15:34:24.917Z,3.69
2019-01-26T15:39:29.282Z,3.73
2019-01-26T15:44:33.634Z,3.71
2019-01-26T15:49:38.005Z,3.78
2019-01-26T15:54:42.371Z,3.85
2019-01-26T15:59:53.269Z,3.83
2019-01-26T16:04:52.975Z,3.78
2019-01-26T16:09:57.369Z,3.78
2019-01-26T16:15:01.715Z,3.79
2019-01-26T16:20:09.310Z,3.73
2019-01-26T16:25:15.457Z,3.90
2019-01-26T16:30:25.080Z,3.80
2019-01-26T16:35:29.622Z,3.99
2019-01-26T16:40:35.748Z,3.78
2019-01-26T16:45:40.265Z,3.96
2019-01-26T16:50:44.733Z,4.01
2019-01-26T16:55:49.063Z,3.87
2019-01-26T17:00:53.695Z,3.92
2019-01-26T17:05:58.082Z,4.06
2019-01-26T17:11:02.483Z,4.22
2019-01-26T17:16:06.953Z,4.16
2019-01-26T17:21:11.362Z,4.17
2019-01-26T17:26:15.778Z,4.32
2019-01-26T17:31:20.131Z,4.16
2019-01-26T17:36:24.498Z,4.38
2019-01-26T17:41:29.002Z,4.45
2019-01-26T17:46:33.351Z,4.48
2019-01-26T17:51:37.684Z,4.45
2019-01-26T17:56:42.211Z,4.40
2019-01-26T18:01:46.596Z,4.32
2019-01-26T18:06:52.130Z,4.39
2019-01-26T18:11:57.582Z,4.65
2019-01-26T18:17:01.915Z,4.54
2019-01-26T18:22:06.417Z,4.39
2019-01-26T18:27:10.770Z,4.45
2019-01-26T18:32:15.134Z,4.53
2019-01-26T18:37:19.491Z,4.51
2019-01-26T18:42:23.950Z,4.41
2019-01-26T18:47:28.459Z,4.44
2019-01-26T18:52:33.911Z,4.48
2019-01-26T18:57:41.356Z,4.37
2019-01-26T19:02:46.909Z,4.49
2019-01-26T19:07:51.413Z,4.53
2019-01-26T19:12:55.952Z,4.48
2019-01-26T19:18:00.298Z,4.57
2019-01-26T19:23:04.999Z,4.48
2019-01-26T19:28:09.335Z,4.49
2019-01-26T19:33:13.721Z,4.29
2019-01-26T19:38:18.079Z,4.43
2019-01-26T19:43:22.513Z,4.35
2019-01-26T19:48:26.897Z,4.30
2019-01-26T19:53:31.314Z,4.54
2019-01-26T19:58:35.830Z,4.20
2019-01-26T20:03:40.351Z,4.37
2019-01-26T20:08:44.703Z,4.28
2019-01-26T20:13:49.071Z,4.28
2019-01-26T20:18:53.403Z,4.65
2019-01-26T20:23:57.753Z,4.53
2019-01-26T20:29:02.158Z,4.54
2019-01-26T20:34:07.563Z,4.46
2019-01-26T20:39:12.007Z,4.52
2019-01-26T20:44:17.483Z,4.63
2019-01-26T20:49:21.942Z,4.67
2019-01-26T20:54:26.305Z,4.64
2019-01-26T20:59:30.716Z,4.54
2019-01-26T21:04:35.119Z,4.78
2019-01-26T21:09:39.480Z,4.89
2019-01-26T21:14:43.878Z,4.79
2019-01-26T21:19:48.282Z,4.65
2019-01-26T21:24:52.688Z,4.74
2019-01-26T21:29:57.026Z,4.74
2019-01-26T21:35:01.522Z,4.76
2019-01-26T21:40:09.311Z,4.63
2019-01-26T21:45:15.004Z,4.58
2019-01-26T21:50:27.591Z,4.69
2019-01-26T21:55:31.943Z,4.63
2019-01-26T22:00:36.379Z,4.77
2019-01-26T22:05:40.738Z,4.79
2019-01-26T22:10:45.071Z,4.71
2019-01-26T22:15:49.480Z,4.78
2019-01-26T22:20:54.023Z,4.86
2019-01-26T22:25:58.433Z,4.84
2019-01-26T22:31:02.775Z,5.03
2019-01-26T22:36:07.120Z,4.91
2019-01-26T22:41:11.502Z,4.77
2019-01-26T22:46:15.977Z,5.04
2019-01-26T22:51:20.455Z,4.84
2019-01-26T22:56:24.837Z,4.84
2019-01-26T23:01:29.867Z,4.79
2019-01-26T23:06:40.143Z,4.89
2019-01-26T23:11:56.488Z,5.05
2019-01-26T23:17:39.794Z,5.01
2019-01-26T23:22:52.969Z,4.82
2019-01-26T23:28:09.248Z,4.96
2019-01-26T23:33:13.764Z,4.83
2019-01-26T23:38:18.093Z,4.69
2019-01-26T23:43:22.533Z,4.60
2019-01-26T23:48:26.916Z,4.73
2019-01-26T23:53:31.303Z,5.08
2019-01-26T23:58:35.643Z,4.93
